createdAt,value
2024-02-11T00:00:53.173Z,11.03
2024-02-11T00:01:53.299Z,11.03
2024-02-11T00:02:53.332Z,11.03
2024-02-11T00:03:53.465Z,11.03
2024-02-11T00:04:53.529Z,11.07
2024-02-11T00:05:53.609Z,11.06
2024-02-11T00:06:53.704Z,11.06
2024-02-11T00:07:53.808Z,11.06
2024-02-11T00:08:53.901Z,11.07
2024-02-11T00:09:53.921Z,11.07
2024-02-11T00:10:54.092Z,11.06
2024-02-11T00:11:54.083Z,11.06
2024-02-11T00:12:54.152Z,11.03
2024-02-11T00:13:54.302Z,11.02
2024-02-11T00:14:54.335Z,11.02
2024-02-11T00:15:54.455Z,11.02
2024-02-11T00:16:54.528Z,11.01
2024-02-11T00:17:54.618Z,11.01
2024-02-11T00:18:54.784Z,10.99
2024-02-11T00:19:54.828Z,11.01
2024-02-11T00:20:54.860Z,11.01
2024-02-11T00:21:54.945Z,10.99
2024-02-11T00:22:55.061Z,10.98
2024-02-11T00:23:55.169Z,10.98
2024-02-11T00:24:55.171Z,10.96
2024-02-11T00:25:55.315Z,10.98
2024-02-11T00:26:55.299Z,10.98
2024-02-11T00:27:55.409Z,10.95
2024-02-11T00:28:55.528Z,10.95
2024-02-11T00:29:55.587Z,10.92
2024-02-11T00:30:55.660Z,10.92
2024-02-11T00:31:55.813Z,10.92
2024-02-11T00:32:55.889Z,10.94
2024-02-11T00:33:56.024Z,10.91
2024-02-11T00:34:56.035Z,10.91
2024-02-11T00:35:56.117Z,10.92
2024-02-11T00:36:56.193Z,10.89
2024-02-11T00:37:56.327Z,10.89
2024-02-11T00:38:56.407Z,10.88
2024-02-11T00:39:56.425Z,10.89
2024-02-11T00:40:56.537Z,10.86
2024-02-11T00:41:56.594Z,10.86
2024-02-11T00:42:56.672Z,10.84
2024-02-11T00:43:56.906Z,10.84
2024-02-11T00:44:56.818Z,10.83
2024-02-11T00:45:56.878Z,10.81
2024-02-11T00:46:56.985Z,10.83
2024-02-11T00:47:57.130Z,10.80
2024-02-11T00:48:57.234Z,10.81
2024-02-11T00:49:57.186Z,10.80
2024-02-11T00:50:57.266Z,10.80
2024-02-11T00:51:57.340Z,10.80
2024-02-11T00:52:57.471Z,10.78
2024-02-11T00:53:57.607Z,10.80
2024-02-11T00:54:57.637Z,10.78
2024-02-11T00:55:57.705Z,10.80
2024-02-11T00:56:57.751Z,10.78
2024-02-11T00:57:57.810Z,10.78
2024-02-11T00:58:57.933Z,10.80
2024-02-11T00:59:57.998Z,10.80
2024-02-11T01:00:58.103Z,10.80
2024-02-11T01:01:58.169Z,10.78
2024-02-11T01:02:58.229Z,10.81
2024-02-11T01:03:58.480Z,10.81
2024-02-11T01:04:58.489Z,10.81
2024-02-11T01:05:58.547Z,10.81
2024-02-11T01:06:58.642Z,10.83
2024-02-11T01:07:58.710Z,10.84
2024-02-11T01:08:58.791Z,10.81
2024-02-11T01:09:58.835Z,10.84
2024-02-11T01:10:58.904Z,10.83
2024-02-11T01:11:59.022Z,10.81
2024-02-11T01:12:59.052Z,10.81
2024-02-11T01:13:59.182Z,10.80
2024-02-11T01:14:59.228Z,10.81
2024-02-11T01:15:59.318Z,10.81
2024-02-11T01:16:59.392Z,10.81
2024-02-11T01:17:59.515Z,10.83
2024-02-11T01:18:59.684Z,10.83
2024-02-11T01:19:59.663Z,10.83
2024-02-11T01:20:59.746Z,10.86
2024-02-11T01:21:59.859Z,10.86
2024-02-11T01:22:59.936Z,10.88
2024-02-11T01:23:59.991Z,10.91
2024-02-11T01:25:00.023Z,10.91
2024-02-11T01:26:00.184Z,10.92
2024-02-11T01:27:00.215Z,10.92
2024-02-11T01:28:00.297Z,10.95
2024-02-11T01:29:00.450Z,10.95
2024-02-11T01:30:00.535Z,10.96
2024-02-11T01:31:00.578Z,10.98
2024-02-11T01:32:00.720Z,10.98
2024-02-11T01:33:00.849Z,10.98
2024-02-11T01:34:00.940Z,11.01
2024-02-11T01:35:01.011Z,11.01
2024-02-11T01:36:00.983Z,10.99
2024-02-11T01:37:01.031Z,10.96
2024-02-11T01:38:01.156Z,10.96
2024-02-11T01:39:01.249Z,10.96
2024-02-11T01:40:01.308Z,10.95
2024-02-11T01:41:01.434Z,10.95
2024-02-11T01:42:01.477Z,10.95
2024-02-11T01:43:01.608Z,10.95
2024-02-11T01:44:01.786Z,10.94
2024-02-11T01:45:01.727Z,10.95
2024-02-11T01:46:01.778Z,10.94
2024-02-11T01:47:01.886Z,10.92
2024-02-11T01:48:02.016Z,10.91
2024-02-11T01:49:02.088Z,10.89
2024-02-11T01:50:02.099Z,10.89
2024-02-11T01:51:02.176Z,10.89
2024-02-11T01:52:02.273Z,10.88
2024-02-11T01:53:02.370Z,10.89
2024-02-11T01:54:02.426Z,10.88
2024-02-11T01:55:02.488Z,10.89
2024-02-11T01:56:02.673Z,10.88
2024-02-11T01:57:02.621Z,10.88
2024-02-11T01:58:02.718Z,10.88
2024-02-11T01:59:02.858Z,10.88
2024-02-11T02:00:02.928Z,10.88
2024-02-11T02:01:02.976Z,10.88
2024-02-11T02:02:03.089Z,10.89
2024-02-11T02:03:03.110Z,10.86
2024-02-11T02:04:03.287Z,10.84
2024-02-11T02:05:03.637Z,10.81
2024-02-11T02:06:03.448Z,10.77
2024-02-11T02:07:03.439Z,10.74
2024-02-11T02:08:03.532Z,10.68
2024-02-11T02:09:03.617Z,10.62
2024-02-11T02:10:03.730Z,10.56
2024-02-11T02:11:03.827Z,10.51
2024-02-11T02:12:03.869Z,10.46
2024-02-11T02:13:03.927Z,10.40
2024-02-11T02:14:04.044Z,10.34
2024-02-11T02:15:04.110Z,10.26
2024-02-11T02:16:04.187Z,10.19
2024-02-11T02:17:04.355Z,10.10
2024-02-11T02:18:04.451Z,10.01
2024-02-11T02:19:04.576Z,9.96
2024-02-11T02:20:04.564Z,9.88
2024-02-11T02:21:04.598Z,9.79
2024-02-11T02:22:04.699Z,9.71
2024-02-11T02:23:04.816Z,9.63
2024-02-11T02:24:04.887Z,9.56
2024-02-11T02:25:04.961Z,9.46
2024-02-11T02:26:05.124Z,9.40
2024-02-11T02:27:05.109Z,9.35
2024-02-11T02:28:05.195Z,9.34
2024-02-11T02:29:05.451Z,9.28
2024-02-11T02:30:05.432Z,9.24
2024-02-11T02:31:05.436Z,9.21
2024-02-11T02:32:05.590Z,9.16
2024-02-11T02:33:05.863Z,9.13
2024-02-11T02:34:05.734Z,9.15
2024-02-11T02:35:05.807Z,9.13
2024-02-11T02:36:05.866Z,9.10
2024-02-11T02:37:05.911Z,9.12
2024-02-11T02:38:06.058Z,9.10
2024-02-11T02:39:06.160Z,9.09
2024-02-11T02:40:06.149Z,9.09
2024-02-11T02:41:06.285Z,9.05
2024-02-11T02:42:06.321Z,9.05
2024-02-11T02:43:06.374Z,9.05
2024-02-11T02:44:06.561Z,9.02
2024-02-11T02:45:06.540Z,9.05
2024-02-11T02:46:06.669Z,9.05
2024-02-11T02:47:06.882Z,9.10
2024-02-11T02:48:06.853Z,9.09
2024-02-11T02:49:07.004Z,9.10
2024-02-11T02:50:07.040Z,9.12
2024-02-11T02:51:07.074Z,9.12
2024-02-11T02:52:07.143Z,9.09
2024-02-11T02:53:07.289Z,9.10
2024-02-11T02:54:07.380Z,9.13
2024-02-11T02:55:07.410Z,9.13
2024-02-11T02:56:07.633Z,9.15
2024-02-11T02:57:07.586Z,9.16
2024-02-11T02:58:07.647Z,9.18
2024-02-11T02:59:07.877Z,9.21
2024-02-11T03:00:07.862Z,9.21
2024-02-11T03:01:08.004Z,9.21
2024-02-11T03:02:08.068Z,9.20
2024-02-11T03:03:08.239Z,9.20
2024-02-11T03:04:08.269Z,9.20
2024-02-11T03:05:08.361Z,9.18
2024-02-11T03:06:08.422Z,9.18
2024-02-11T03:07:08.435Z,9.18
2024-02-11T03:08:08.630Z,9.16
2024-02-11T03:09:08.671Z,9.18
2024-02-11T03:10:08.646Z,9.13
2024-02-11T03:11:08.761Z,9.12
2024-02-11T03:12:08.823Z,9.06
2024-02-11T03:13:08.890Z,9.05
2024-02-11T03:14:09.036Z,9.05
2024-02-11T03:15:09.042Z,9.05
2024-02-11T03:16:09.136Z,9.05
2024-02-11T03:17:09.222Z,9.04
2024-02-11T03:18:09.403Z,9.04
2024-02-11T03:19:09.493Z,9.02
2024-02-11T03:20:09.530Z,9.04
2024-02-11T03:21:09.571Z,9.02
2024-02-11T03:22:09.637Z,9.04
2024-02-11T03:23:09.745Z,9.05
2024-02-11T03:24:09.835Z,9.09
2024-02-11T03:25:09.870Z,9.10
2024-02-11T03:26:10.008Z,9.10
2024-02-11T03:27:10.034Z,9.10
2024-02-11T03:28:10.086Z,9.12
2024-02-11T03:29:10.386Z,9.13
2024-02-11T03:30:10.306Z,9.13
2024-02-11T03:31:10.406Z,9.12
2024-02-11T03:32:10.453Z,9.10
2024-02-11T03:33:10.678Z,9.10
2024-02-11T03:34:10.803Z,9.06
2024-02-11T03:35:10.767Z,9.06
2024-02-11T03:36:10.779Z,9.06
2024-02-11T03:37:10.866Z,9.05
2024-02-11T03:38:10.988Z,9.01
2024-02-11T03:39:11.084Z,8.99
2024-02-11T03:40:11.121Z,8.94
2024-02-11T03:41:11.250Z,8.90
2024-02-11T03:42:11.292Z,8.87
2024-02-11T03:43:11.383Z,8.83
2024-02-11T03:44:11.541Z,8.79
2024-02-11T03:45:11.585Z,8.75
2024-02-11T03:46:11.616Z,8.69
2024-02-11T03:47:11.759Z,8.63
2024-02-11T03:48:11.863Z,8.58
2024-02-11T03:49:12.034Z,8.55
2024-02-11T03:50:12.194Z,8.53
2024-02-11T03:51:12.032Z,8.50
2024-02-11T03:52:12.094Z,8.44
2024-02-11T03:53:12.361Z,8.36
2024-02-11T03:54:12.337Z,8.33
2024-02-11T03:55:12.909Z,8.28
2024-02-11T03:56:12.483Z,8.25
2024-02-11T03:57:12.574Z,8.21
2024-02-11T03:58:12.634Z,8.18
2024-02-11T03:59:12.884Z,8.14
2024-02-11T04:00:12.784Z,8.12
2024-02-11T04:01:13.548Z,8.10
2024-02-11T04:02:13.015Z,8.10
2024-02-11T04:03:13.017Z,8.04
2024-02-11T04:04:13.150Z,7.99
2024-02-11T04:05:13.295Z,7.94
2024-02-11T04:06:13.350Z,7.92
2024-02-11T04:07:13.366Z,7.90
2024-02-11T04:08:13.704Z,7.90
2024-02-11T04:09:13.537Z,7.89
2024-02-11T04:10:13.585Z,7.84
2024-02-11T04:11:13.826Z,7.82
2024-02-11T04:12:13.768Z,7.79
2024-02-11T04:13:13.939Z,7.75
2024-02-11T04:14:13.960Z,7.74
2024-02-11T04:15:13.944Z,7.67
2024-02-11T04:16:14.026Z,7.63
2024-02-11T04:17:14.207Z,7.59
2024-02-11T04:18:14.261Z,7.56
2024-02-11T04:19:14.382Z,7.52
2024-02-11T04:20:14.411Z,7.52
2024-02-11T04:21:14.473Z,7.52
2024-02-11T04:22:14.572Z,7.52
2024-02-11T04:23:14.714Z,7.50
2024-02-11T04:24:14.741Z,7.50
2024-02-11T04:25:14.813Z,7.49
2024-02-11T04:26:14.887Z,7.49
2024-02-11T04:27:14.961Z,7.45
2024-02-11T04:28:15.048Z,7.45
2024-02-11T04:29:15.169Z,7.45
2024-02-11T04:30:15.245Z,7.49
2024-02-11T04:31:15.383Z,7.45
2024-02-11T04:32:15.567Z,7.45
2024-02-11T04:33:16.411Z,7.44
2024-02-11T04:34:15.643Z,7.42
2024-02-11T04:35:15.684Z,7.41
2024-02-11T04:36:15.772Z,7.42
2024-02-11T04:37:15.878Z,7.44
2024-02-11T04:38:16.330Z,7.45
2024-02-11T04:39:16.129Z,7.45
2024-02-11T04:40:16.063Z,7.44
2024-02-11T04:41:16.174Z,7.42
2024-02-11T04:42:16.236Z,7.41
2024-02-11T04:43:16.314Z,7.40
2024-02-11T04:44:16.495Z,7.38
2024-02-11T04:45:16.494Z,7.37
2024-02-11T04:46:16.545Z,7.37
2024-02-11T04:47:16.712Z,7.37
2024-02-11T04:48:16.793Z,7.32
2024-02-11T04:49:16.968Z,7.32
2024-02-11T04:50:16.997Z,7.27
2024-02-11T04:51:17.037Z,7.24
2024-02-11T04:52:17.042Z,7.26
2024-02-11T04:53:17.207Z,7.26
2024-02-11T04:54:17.271Z,7.26
2024-02-11T04:55:17.298Z,7.26
2024-02-11T04:56:17.395Z,7.24
2024-02-11T04:57:17.477Z,7.24
2024-02-11T04:58:18.731Z,7.23
2024-02-11T04:59:17.797Z,7.23
2024-02-11T05:00:17.725Z,7.24
2024-02-11T05:01:17.847Z,7.26
2024-02-11T05:02:17.965Z,7.27
2024-02-11T05:03:18.040Z,7.26
2024-02-11T05:04:18.106Z,7.24
2024-02-11T05:05:18.286Z,7.26
2024-02-11T05:06:18.334Z,7.26
2024-02-11T05:07:18.359Z,7.22
2024-02-11T05:08:18.933Z,7.20
2024-02-11T05:09:18.548Z,7.17
2024-02-11T05:10:18.581Z,7.19
2024-02-11T05:11:18.734Z,7.17
2024-02-11T05:12:18.757Z,7.16
2024-02-11T05:13:18.867Z,7.13
2024-02-11T05:14:18.953Z,7.13
2024-02-11T05:15:18.966Z,7.09
2024-02-11T05:16:19.034Z,7.05
2024-02-11T05:17:19.113Z,7.02
2024-02-11T05:18:19.296Z,7.01
2024-02-11T05:19:19.334Z,7.01
2024-02-11T05:20:19.440Z,7.02
2024-02-11T05:21:19.450Z,7.01
2024-02-11T05:22:19.527Z,7.01
2024-02-11T05:23:19.751Z,7.01
2024-02-11T05:24:19.681Z,7.01
2024-02-11T05:25:19.765Z,6.98
2024-02-11T05:26:19.818Z,6.95
2024-02-11T05:27:19.919Z,6.97
2024-02-11T05:28:19.991Z,6.94
2024-02-11T05:29:20.155Z,6.94
2024-02-11T05:30:20.115Z,6.90
2024-02-11T05:31:20.188Z,6.87
2024-02-11T05:32:20.335Z,6.86
2024-02-11T05:33:21.320Z,6.87
2024-02-11T05:34:20.409Z,6.87
2024-02-11T05:35:20.570Z,6.89
2024-02-11T05:36:20.571Z,6.89
2024-02-11T05:37:20.648Z,6.90
2024-02-11T05:38:20.831Z,6.89
2024-02-11T05:39:20.834Z,6.89
2024-02-11T05:40:20.952Z,6.86
2024-02-11T05:41:21.132Z,6.87
2024-02-11T05:42:21.100Z,6.89
2024-02-11T05:43:21.207Z,6.90
2024-02-11T05:44:21.272Z,6.90
2024-02-11T05:45:21.336Z,6.90
2024-02-11T05:46:21.419Z,6.91
2024-02-11T05:47:21.585Z,6.90
2024-02-11T05:48:21.679Z,6.90
2024-02-11T05:49:21.735Z,6.89
2024-02-11T05:50:21.883Z,6.87
2024-02-11T05:51:21.888Z,6.86
2024-02-11T05:52:22.008Z,6.84
2024-02-11T05:53:22.320Z,6.84
2024-02-11T05:54:22.131Z,6.84
2024-02-11T05:55:22.223Z,6.83
2024-02-11T05:56:22.341Z,6.83
2024-02-11T05:57:22.391Z,6.81
2024-02-11T05:58:22.494Z,6.80
2024-02-11T05:59:22.680Z,6.80
2024-02-11T06:00:22.659Z,6.80
2024-02-11T06:01:22.794Z,6.79
2024-02-11T06:02:22.947Z,6.79
2024-02-11T06:03:22.994Z,6.79
2024-02-11T06:04:23.033Z,6.79
2024-02-11T06:05:23.136Z,6.79
2024-02-11T06:06:23.214Z,6.79
2024-02-11T06:07:23.378Z,6.79
2024-02-11T06:08:23.411Z,6.80
2024-02-11T06:09:23.483Z,6.80
2024-02-11T06:10:23.570Z,6.80
2024-02-11T06:11:23.634Z,6.81
2024-02-11T06:12:23.656Z,6.79
2024-02-11T06:13:23.787Z,6.80
2024-02-11T06:14:23.870Z,6.79
2024-02-11T06:15:23.943Z,6.80
2024-02-11T06:16:23.996Z,6.79
2024-02-11T06:17:24.141Z,6.77
2024-02-11T06:18:24.209Z,6.77
2024-02-11T06:19:24.314Z,6.79
2024-02-11T06:20:24.355Z,6.77
2024-02-11T06:21:24.405Z,6.76
2024-02-11T06:22:24.478Z,6.77
2024-02-11T06:23:24.795Z,6.77
2024-02-11T06:24:24.658Z,6.76
2024-02-11T06:25:24.779Z,6.77
2024-02-11T06:26:24.855Z,6.77
2024-02-11T06:27:24.857Z,6.80
2024-02-11T06:28:24.931Z,6.81
2024-02-11T06:29:25.002Z,6.80
2024-02-11T06:30:25.115Z,6.79
2024-02-11T06:31:25.184Z,6.79
2024-02-11T06:32:25.378Z,6.77
2024-02-11T06:33:25.522Z,6.76
2024-02-11T06:34:26.994Z,6.72
2024-02-11T06:35:26.231Z,6.76
2024-02-11T06:36:25.622Z,6.73
2024-02-11T06:37:25.733Z,6.77
2024-02-11T06:38:25.879Z,6.77
2024-02-11T06:39:25.880Z,6.79
2024-02-11T06:40:25.954Z,6.79
2024-02-11T06:41:26.130Z,6.77
2024-02-11T06:42:26.111Z,6.79
2024-02-11T06:43:26.238Z,6.80
2024-02-11T06:44:26.364Z,6.80
2024-02-11T06:45:26.408Z,6.80
2024-02-11T06:46:26.509Z,6.80
2024-02-11T06:47:26.692Z,6.79
2024-02-11T06:48:26.767Z,6.77
2024-02-11T06:49:26.774Z,6.76
2024-02-11T06:50:26.971Z,6.76
2024-02-11T06:51:26.917Z,6.72
2024-02-11T06:52:26.992Z,6.72
2024-02-11T06:53:27.165Z,6.72
2024-02-11T06:54:29.125Z,6.72
2024-02-11T06:55:27.223Z,6.71
2024-02-11T06:56:27.306Z,6.71
2024-02-11T06:57:27.384Z,6.71
2024-02-11T06:58:27.510Z,6.73
2024-02-11T06:59:27.552Z,6.73
2024-02-11T07:00:27.664Z,6.76
2024-02-11T07:01:27.771Z,6.73
2024-02-11T07:02:29.496Z,6.76
2024-02-11T07:03:27.994Z,6.73
2024-02-11T07:04:27.926Z,6.73
2024-02-11T07:05:28.190Z,6.72
2024-02-11T07:06:28.143Z,6.73
2024-02-11T07:07:28.217Z,6.73
2024-02-11T07:08:28.350Z,6.72
2024-02-11T07:09:28.409Z,6.72
2024-02-11T07:10:28.416Z,6.72
2024-02-11T07:11:28.511Z,6.72
2024-02-11T07:12:28.559Z,6.71
2024-02-11T07:13:30.416Z,6.69
2024-02-11T07:14:28.728Z,6.71
2024-02-11T07:15:28.780Z,6.71
2024-02-11T07:16:28.873Z,6.69
2024-02-11T07:17:28.978Z,6.71
2024-02-11T07:18:29.114Z,6.69
2024-02-11T07:19:29.060Z,6.69
2024-02-11T07:20:29.243Z,6.71
2024-02-11T07:21:30.457Z,6.72
2024-02-11T07:22:31.007Z,6.72
2024-02-11T07:23:29.509Z,6.72
2024-02-11T07:24:29.566Z,6.73
2024-02-11T07:25:29.586Z,6.76
2024-02-11T07:26:29.732Z,6.76
2024-02-11T07:27:29.861Z,6.76
2024-02-11T07:28:29.893Z,6.76
2024-02-11T07:29:29.953Z,6.76
2024-02-11T07:30:30.031Z,6.76
2024-02-11T07:31:30.058Z,6.76
2024-02-11T07:32:30.349Z,6.77
2024-02-11T07:33:30.285Z,6.79
2024-02-11T07:34:30.468Z,6.76
2024-02-11T07:35:30.451Z,6.77
2024-02-11T07:36:33.685Z,6.79
2024-02-11T07:37:30.758Z,6.77
2024-02-11T07:38:30.711Z,6.77
2024-02-11T07:39:30.722Z,6.79
2024-02-11T07:40:30.828Z,6.79
2024-02-11T07:41:30.900Z,6.79
2024-02-11T07:42:30.978Z,6.79
2024-02-11T07:43:31.090Z,6.80
2024-02-11T07:44:31.147Z,6.80
2024-02-11T07:45:31.258Z,6.79
2024-02-11T07:46:31.301Z,6.79
2024-02-11T07:47:31.455Z,6.77
2024-02-11T07:48:31.619Z,6.77
2024-02-11T07:49:31.545Z,6.79
2024-02-11T07:50:31.659Z,6.77
2024-02-11T07:51:31.730Z,6.77
2024-02-11T07:52:31.859Z,6.77
2024-02-11T07:53:31.885Z,6.76
2024-02-11T07:54:31.956Z,6.77
2024-02-11T07:55:32.008Z,6.77
2024-02-11T07:56:32.086Z,6.77
2024-02-11T07:57:32.139Z,6.77
2024-02-11T07:58:32.259Z,6.77
2024-02-11T07:59:32.268Z,6.77
2024-02-11T08:00:32.580Z,6.79
2024-02-11T08:01:32.507Z,6.79
2024-02-11T08:02:32.650Z,6.79
2024-02-11T08:03:32.698Z,6.79
2024-02-11T08:04:32.685Z,6.79
2024-02-11T08:05:32.814Z,6.79
2024-02-11T08:06:32.909Z,6.79
2024-02-11T08:07:32.933Z,6.80
2024-02-11T08:08:33.061Z,6.80
2024-02-11T08:09:33.113Z,6.80
2024-02-11T08:10:33.211Z,6.81
2024-02-11T08:11:33.301Z,6.81
2024-02-11T08:12:33.371Z,6.81
2024-02-11T08:13:33.473Z,6.81
2024-02-11T08:14:33.593Z,6.83
2024-02-11T08:15:33.565Z,6.84
2024-02-11T08:16:33.637Z,6.84
2024-02-11T08:17:33.810Z,6.84
2024-02-11T08:18:33.981Z,6.86
2024-02-11T08:19:34.015Z,6.86
2024-02-11T08:20:34.082Z,6.87
2024-02-11T08:21:34.111Z,6.89
2024-02-11T08:22:34.167Z,6.87
2024-02-11T08:23:34.302Z,6.89
2024-02-11T08:24:34.466Z,6.89
2024-02-11T08:25:34.410Z,6.89
2024-02-11T08:26:34.473Z,6.89
2024-02-11T08:27:34.560Z,6.89
2024-02-11T08:28:34.677Z,6.91
2024-02-11T08:29:34.707Z,6.90
2024-02-11T08:30:34.806Z,6.90
2024-02-11T08:31:35.003Z,6.90
2024-02-11T08:32:35.087Z,6.91
2024-02-11T08:33:35.227Z,6.91
2024-02-11T08:34:35.191Z,6.95
2024-02-11T08:35:35.357Z,6.95
2024-02-11T08:36:35.330Z,6.94
2024-02-11T08:37:35.418Z,6.95
2024-02-11T08:38:35.567Z,6.95
2024-02-11T08:39:35.624Z,6.97
2024-02-11T08:40:35.655Z,6.97
2024-02-11T08:41:35.724Z,6.97
2024-02-11T08:42:35.789Z,6.95
2024-02-11T08:43:35.909Z,6.97
2024-02-11T08:44:36.027Z,6.95
2024-02-11T08:45:36.028Z,6.95
2024-02-11T08:46:36.178Z,6.94
2024-02-11T08:47:36.346Z,6.95
2024-02-11T08:48:36.441Z,6.97
2024-02-11T08:49:36.391Z,6.95
2024-02-11T08:50:36.663Z,6.94
2024-02-11T08:51:36.516Z,6.97
2024-02-11T08:52:36.645Z,6.98
2024-02-11T08:53:36.691Z,6.98
2024-02-11T08:54:36.758Z,7.01
2024-02-11T08:55:36.823Z,7.01
2024-02-11T08:56:36.967Z,7.04
2024-02-11T08:57:36.995Z,7.04
2024-02-11T08:58:37.182Z,7.05
2024-02-11T08:59:37.190Z,7.07
2024-02-11T09:00:37.297Z,7.08
2024-02-11T09:01:37.373Z,7.08
2024-02-11T09:02:37.448Z,7.09
2024-02-11T09:03:37.564Z,7.09
2024-02-11T09:04:37.673Z,7.09
2024-02-11T09:05:37.762Z,7.09
2024-02-11T09:06:37.825Z,7.12
2024-02-11T09:07:38.627Z,7.12
2024-02-11T09:08:37.982Z,7.13
2024-02-11T09:09:38.017Z,7.15
2024-02-11T09:10:38.144Z,7.15
2024-02-11T09:11:38.139Z,7.15
2024-02-11T09:12:38.226Z,7.15
2024-02-11T09:13:39.626Z,7.13
2024-02-11T09:14:38.548Z,7.13
2024-02-11T09:15:38.466Z,7.13
2024-02-11T09:16:38.579Z,7.15
2024-02-11T09:17:38.781Z,7.16
2024-02-11T09:18:38.803Z,7.16
2024-02-11T09:19:38.882Z,7.15
2024-02-11T09:20:38.931Z,7.15
2024-02-11T09:21:39.000Z,7.13
2024-02-11T09:22:39.166Z,7.15
2024-02-11T09:23:39.212Z,7.15
2024-02-11T09:24:39.373Z,7.16
2024-02-11T09:25:39.344Z,7.17
2024-02-11T09:26:39.434Z,7.17
2024-02-11T09:27:39.504Z,7.19
2024-02-11T09:28:39.728Z,7.19
2024-02-11T09:29:39.678Z,7.20
2024-02-11T09:30:39.720Z,7.22
2024-02-11T09:31:39.948Z,7.22
2024-02-11T09:32:39.946Z,7.22
2024-02-11T09:33:40.198Z,7.24
2024-02-11T09:34:40.059Z,7.26
2024-02-11T09:35:40.135Z,7.26
2024-02-11T09:36:40.193Z,7.27
2024-02-11T09:37:40.326Z,7.29
2024-02-11T09:38:40.423Z,7.29
2024-02-11T09:39:40.474Z,7.29
2024-02-11T09:40:40.640Z,7.29
2024-02-11T09:41:40.613Z,7.29
2024-02-11T09:42:40.691Z,7.32
2024-02-11T09:43:40.853Z,7.31
2024-02-11T09:44:40.861Z,7.34
2024-02-11T09:45:40.941Z,7.34
2024-02-11T09:46:41.016Z,7.32
2024-02-11T09:47:41.165Z,7.34
2024-02-11T09:48:41.417Z,7.32
2024-02-11T09:49:41.269Z,7.35
2024-02-11T09:50:41.330Z,7.37
2024-02-11T09:51:41.425Z,7.35
2024-02-11T09:52:41.567Z,7.35
2024-02-11T09:53:41.654Z,7.37
2024-02-11T09:54:41.696Z,7.35
2024-02-11T09:55:41.834Z,7.37
2024-02-11T09:56:41.872Z,7.38
2024-02-11T09:57:41.956Z,7.38
2024-02-11T09:58:42.253Z,7.38
2024-02-11T09:59:42.097Z,7.40
2024-02-11T10:00:42.197Z,7.41
2024-02-11T10:01:42.331Z,7.42
2024-02-11T10:02:42.436Z,7.42
2024-02-11T10:03:42.430Z,7.42
2024-02-11T10:04:42.536Z,7.44
2024-02-11T10:05:42.656Z,7.44
2024-02-11T10:06:42.672Z,7.44
2024-02-11T10:07:42.746Z,7.41
2024-02-11T10:08:42.905Z,7.41
2024-02-11T10:09:42.884Z,7.42
2024-02-11T10:10:43.036Z,7.42
2024-02-11T10:11:43.061Z,7.42
2024-02-11T10:12:43.175Z,7.44
2024-02-11T10:13:43.382Z,7.45
2024-02-11T10:14:43.342Z,7.45
2024-02-11T10:15:43.477Z,7.49
2024-02-11T10:16:43.601Z,7.47
2024-02-11T10:17:43.619Z,7.49
2024-02-11T10:18:43.886Z,7.49
2024-02-11T10:19:43.841Z,7.49
2024-02-11T10:20:43.944Z,7.47
2024-02-11T10:21:43.963Z,7.47
2024-02-11T10:22:44.235Z,7.49
2024-02-11T10:23:44.192Z,7.50
2024-02-11T10:24:44.227Z,7.52
2024-02-11T10:25:44.378Z,7.55
2024-02-11T10:26:44.433Z,7.56
2024-02-11T10:27:44.475Z,7.58
2024-02-11T10:28:44.613Z,7.58
2024-02-11T10:29:44.664Z,7.59
2024-02-11T10:30:44.731Z,7.62
2024-02-11T10:31:44.786Z,7.63
2024-02-11T10:32:45.081Z,7.63
2024-02-11T10:33:45.003Z,7.66
2024-02-11T10:34:45.081Z,7.66
2024-02-11T10:35:45.064Z,7.66
2024-02-11T10:36:45.174Z,7.69
2024-02-11T10:37:45.248Z,7.71
2024-02-11T10:38:45.385Z,7.74
2024-02-11T10:39:45.570Z,7.75
2024-02-11T10:40:45.592Z,7.75
2024-02-11T10:41:45.598Z,7.77
2024-02-11T10:42:45.696Z,7.77
2024-02-11T10:43:47.774Z,7.78
2024-02-11T10:44:45.849Z,7.81
2024-02-11T10:45:45.973Z,7.81
2024-02-11T10:46:46.048Z,7.79
2024-02-11T10:47:46.154Z,7.79
2024-02-11T10:48:46.326Z,7.79
2024-02-11T10:49:46.411Z,7.79
2024-02-11T10:50:46.386Z,7.84
2024-02-11T10:51:46.449Z,7.85
2024-02-11T10:52:46.582Z,7.87
2024-02-11T10:53:46.615Z,7.85
2024-02-11T10:54:46.663Z,7.89
2024-02-11T10:55:47.084Z,7.89
2024-02-11T10:56:46.830Z,7.90
2024-02-11T10:57:46.973Z,7.89
2024-02-11T10:58:47.062Z,7.87
2024-02-11T10:59:47.082Z,7.87
2024-02-11T11:00:47.240Z,7.84
2024-02-11T11:01:47.311Z,7.81
2024-02-11T11:02:47.360Z,7.82
2024-02-11T11:03:47.513Z,7.81
2024-02-11T11:04:47.740Z,7.82
2024-02-11T11:05:47.648Z,7.84
2024-02-11T11:06:47.713Z,7.85
2024-02-11T11:07:47.812Z,7.84
2024-02-11T11:08:47.951Z,7.85
2024-02-11T11:09:47.972Z,7.89
2024-02-11T11:10:48.100Z,7.89
2024-02-11T11:11:48.154Z,7.90
2024-02-11T11:12:48.236Z,7.90
2024-02-11T11:13:48.355Z,7.93
2024-02-11T11:14:48.509Z,7.93
2024-02-11T11:15:48.476Z,7.94
2024-02-11T11:16:48.694Z,7.96
2024-02-11T11:17:48.649Z,7.99
2024-02-11T11:18:48.830Z,7.99
2024-02-11T11:19:48.814Z,7.99
2024-02-11T11:20:48.972Z,8.00
2024-02-11T11:21:48.918Z,8.02
2024-02-11T11:22:49.068Z,8.02
2024-02-11T11:23:49.106Z,8.02
2024-02-11T11:24:49.133Z,8.03
2024-02-11T11:25:49.237Z,8.03
2024-02-11T11:26:49.345Z,8.03
2024-02-11T11:27:49.376Z,8.03
2024-02-11T11:28:49.537Z,8.02
2024-02-11T11:29:49.532Z,8.02
2024-02-11T11:30:49.639Z,8.00
2024-02-11T11:31:49.779Z,8.03
2024-02-11T11:32:49.833Z,8.03
2024-02-11T11:33:49.962Z,8.03
2024-02-11T11:34:49.967Z,8.02
2024-02-11T11:35:50.011Z,8.00
2024-02-11T11:36:50.124Z,8.00
2024-02-11T11:37:50.160Z,7.99
2024-02-11T11:38:50.276Z,7.96
2024-02-11T11:39:50.314Z,7.97
2024-02-11T11:40:50.412Z,7.96
2024-02-11T11:41:50.491Z,7.97
2024-02-11T11:42:50.568Z,7.97
2024-02-11T11:43:50.706Z,8.00
2024-02-11T11:44:50.717Z,8.02
2024-02-11T11:45:50.814Z,8.02
2024-02-11T11:46:50.891Z,8.03
2024-02-11T11:47:51.003Z,8.04
2024-02-11T11:48:51.145Z,8.04
2024-02-11T11:49:51.231Z,8.04
2024-02-11T11:50:51.284Z,8.03
2024-02-11T11:51:51.339Z,8.02
2024-02-11T11:52:51.444Z,8.02
2024-02-11T11:53:51.506Z,8.02
2024-02-11T11:54:51.557Z,8.02
2024-02-11T11:55:51.685Z,8.02
2024-02-11T11:56:51.745Z,8.02
2024-02-11T11:57:51.823Z,8.03
2024-02-11T11:58:51.999Z,8.03
2024-02-11T11:59:52.022Z,8.03
2024-02-11T12:00:52.095Z,8.02
2024-02-11T12:01:52.210Z,8.02
2024-02-11T12:02:52.245Z,8.02
2024-02-11T12:03:52.440Z,8.02
2024-02-11T12:04:52.495Z,8.02
2024-02-11T12:05:52.735Z,8.00
2024-02-11T12:06:52.615Z,8.02
2024-02-11T12:07:52.695Z,8.04
2024-02-11T12:08:52.783Z,8.03
2024-02-11T12:09:52.877Z,8.07
2024-02-11T12:10:52.982Z,8.07
2024-02-11T12:11:53.022Z,8.08
2024-02-11T12:12:53.089Z,8.08
2024-02-11T12:13:53.330Z,8.11
2024-02-11T12:14:53.307Z,8.10
2024-02-11T12:15:53.375Z,8.10
2024-02-11T12:16:53.484Z,8.08
2024-02-11T12:17:53.621Z,8.10
2024-02-11T12:18:53.739Z,8.08
2024-02-11T12:19:53.718Z,8.07
2024-02-11T12:20:53.781Z,8.07
2024-02-11T12:21:53.891Z,8.07
2024-02-11T12:22:53.996Z,8.07
2024-02-11T12:23:54.059Z,8.04
2024-02-11T12:24:54.115Z,8.07
2024-02-11T12:25:54.256Z,8.08
2024-02-11T12:26:54.323Z,8.08
2024-02-11T12:27:54.454Z,8.07
2024-02-11T12:28:54.616Z,8.10
2024-02-11T12:29:54.632Z,8.10
2024-02-11T12:30:54.698Z,8.10
2024-02-11T12:31:54.837Z,8.08
2024-02-11T12:32:54.954Z,8.08
2024-02-11T12:33:55.213Z,8.10
2024-02-11T12:34:55.035Z,8.10
2024-02-11T12:35:56.418Z,8.11
2024-02-11T12:36:55.179Z,8.11
2024-02-11T12:37:55.280Z,8.12
2024-02-11T12:38:55.379Z,8.12
2024-02-11T12:39:55.415Z,8.14
2024-02-11T12:40:55.523Z,8.14
2024-02-11T12:41:55.592Z,8.14
2024-02-11T12:42:55.675Z,8.14
2024-02-11T12:43:56.612Z,8.12
2024-02-11T12:44:55.869Z,8.12
2024-02-11T12:45:55.914Z,8.14
2024-02-11T12:46:56.032Z,8.14
2024-02-11T12:47:56.117Z,8.17
2024-02-11T12:48:56.211Z,8.15
2024-02-11T12:49:56.350Z,8.17
2024-02-11T12:50:56.331Z,8.18
2024-02-11T12:51:56.458Z,8.18
2024-02-11T12:52:56.598Z,8.17
2024-02-11T12:53:56.768Z,8.20
2024-02-11T12:54:56.616Z,8.18
2024-02-11T12:55:56.750Z,8.18
2024-02-11T12:56:56.846Z,8.18
2024-02-11T12:57:56.919Z,8.17
2024-02-11T12:58:57.031Z,8.17
2024-02-11T12:59:59.741Z,8.17
2024-02-11T13:00:57.201Z,8.15
2024-02-11T13:01:57.276Z,8.15
2024-02-11T13:02:57.312Z,8.18
2024-02-11T13:03:57.484Z,8.18
2024-02-11T13:04:57.543Z,8.17
2024-02-11T13:05:57.687Z,8.18
2024-02-11T13:06:57.701Z,8.18
2024-02-11T13:07:57.764Z,8.18
2024-02-11T13:08:57.844Z,8.18
2024-02-11T13:09:57.924Z,8.18
2024-02-11T13:10:58.024Z,8.17
2024-02-11T13:11:58.071Z,8.17
2024-02-11T13:12:58.135Z,8.20
2024-02-11T13:13:58.279Z,8.20
2024-02-11T13:14:58.322Z,8.20